Time;durP1;ratioP1;P1;durP2;ratioP2;P2;SDS_P1;SDS_P2;PMS_P1;PMS_P2;Temp;Humidity;BMP_temperature;BMP_pressure;BME280_temperature;BME280_humidity;BME280_pressure;Samples;Min_cycle;Max_cycle;Signal;HPM_P1;HPM_P2
2021/05/17 00:00:40;;;;;;;;;;;;;;;11.00;96.30;98321.87;1692300;82;20189;-81
2021/05/17 00:03:08;;;;;;;;;;;;;;;11.05;95.27;98317.77;1707548;83;20215;-82
2021/05/17 00:05:35;;;;;;;;;;;;;;;11.05;97.14;98322.98;1725450;83;20343;-81
2021/05/17 00:08:03;;;;;;;;;;;;;;;11.10;96.24;98323.63;1712283;82;20235;-81
2021/05/17 00:10:30;;;;;;;;;;;;;;;11.11;97.02;98322.73;1727794;83;20180;-80
2021/05/17 00:12:56;;;;;;;;;;;;;;;11.14;95.72;98322.16;1727123;82;20323;-81
2021/05/17 00:15:23;;;;;;;;;;;;;;;11.18;95.28;98318.99;1727708;83;20235;-81
2021/05/17 00:17:52;;;;;;;;;;;;;;;11.17;95.78;98327.69;1721036;82;20195;-80
2021/05/17 00:20:19;;;;;;;;;;;;;;;11.15;95.61;98319.94;1722865;83;20247;-80
2021/05/17 00:22:45;;;;;;;;;;;;;;;11.19;94.24;98329.78;1725920;82;20209;-81
2021/05/17 00:25:13;;;;;;;;;;;;;;;11.18;95.43;98333.30;1727451;83;20175;-81
2021/05/17 00:27:41;;;;;;;;;;;;;;;11.19;95.05;98327.17;1723361;82;20231;-81
2021/05/17 00:30:09;;;;;;;;;;;;;;;11.19;94.85;98320.67;1727023;82;20255;-81
2021/05/17 00:32:36;;;;;;;;;;;;;;;11.21;94.38;98322.75;1724543;82;20167;-80
2021/05/17 00:35:05;;;;;;;;;;;;;;;11.24;92.81;98322.65;1725222;83;20353;-82
2021/05/17 00:37:32;;;;;;;;;;;;;;;11.21;94.19;98320.62;1726990;82;20179;-80
2021/05/17 00:39:58;;;;;;;;;;;;;;;11.19;94.50;98325.88;1727363;82;20203;-80
2021/05/17 00:42:24;;;;;;;;;;;;;;;11.18;93.11;98324.20;1714371;82;20216;-80
2021/05/17 00:44:51;;;;;;;;;;;;;;;11.11;93.73;98321.43;1725334;83;20179;-81
2021/05/17 00:47:18;;;;;;;;;;;;;;;11.09;94.38;98319.34;1714909;82;20202;-80
2021/05/17 00:49:46;;;;;;;;;;;;;;;11.08;93.25;98320.23;1725354;83;20175;-81
2021/05/17 00:52:14;;;;;;;;;;;;;;;11.06;93.35;98331.16;1713890;82;20177;-81
2021/05/17 00:54:41;;;;;;;;;;;;;;;11.02;93.39;98335.66;1724791;83;20613;-82
2021/05/17 00:57:08;;;;;;;;;;;;;;;10.98;91.81;98334.05;1716457;82;20183;-80
2021/05/17 00:59:35;;;;;;;;;;;;;;;10.97;91.92;98340.64;1725892;83;20207;-80
2021/05/17 01:02:03;;;;;;;;;;;;;;;10.97;91.28;98339.34;1721219;82;20179;-82
2021/05/17 01:04:46;;;;;;;;;;;;;;;10.94;91.12;98337.25;1723695;83;20243;-79
2021/05/17 01:07:14;;;;;;;;;;;;;;;10.93;92.30;98342.05;1725300;83;20250;-86
2021/05/17 01:09:41;;;;;;;;;;;;;;;10.94;91.64;98342.45;1735247;83;20603;-81
2021/05/17 01:12:08;;;;;;;;;;;;;;;10.90;91.32;98338.28;1709898;83;20173;-80
2021/05/17 01:14:35;;;;;;;;;;;;;;;10.80;92.47;98338.21;1706438;83;20166;-81
2021/05/17 01:17:02;;;;;;;;;;;;;;;10.70;92.74;98338.17;1714868;82;20206;-84
2021/05/17 01:19:40;;;;;;;;;;;;;;;10.71;91.04;98341.17;1728336;83;20159;-81
2021/05/17 01:22:20;;;;;;;;;;;;;;;10.67;90.98;98343.50;1722551;82;20203;-80
2021/05/17 01:24:37;;;;;;;;;;;;;;;10.64;92.30;98343.14;1713943;83;20217;-79
2021/05/17 01:27:06;;;;;;;;;;;;;;;10.63;91.56;98341.46;1715223;82;20247;-80
2021/05/17 01:29:33;;;;;;;;;;;;;;;10.66;91.67;98341.79;1728087;83;20183;-79
2021/05/17 01:32:01;;;;;;;;;;;;;;;10.67;91.68;98338.30;1717707;83;20206;-81
2021/05/17 01:34:28;;;;;;;;;;;;;;;10.64;92.07;98334.50;1727880;83;20199;-79
2021/05/17 01:36:54;;;;;;;;;;;;;;;10.59;90.66;98335.98;1715971;83;20193;-80
2021/05/17 01:39:25;;;;;;;;;;;;;;;10.58;89.38;98339.47;1728403;83;20212;-80
2021/05/17 01:41:53;;;;;;;;;;;;;;;10.52;93.49;98337.10;1724058;82;20167;-81
2021/05/17 01:44:23;;;;;;;;;;;;;;;10.47;94.33;98333.84;1718153;83;20233;-80
2021/05/17 01:46:51;;;;;;;;;;;;;;;10.48;91.19;98340.26;1728725;82;20147;-81
2021/05/17 01:49:18;;;;;;;;;;;;;;;10.46;91.18;98341.23;1728679;83;20249;-81
2021/05/17 01:51:49;;;;;;;;;;;;;;;10.42;91.02;98348.74;1720977;82;20197;-82
2021/05/17 01:54:20;;;;;;;;;;;;;;;10.35;90.47;98343.77;1732928;82;20197;-80
2021/05/17 01:56:48;;;;;;;;;;;;;;;10.28;90.34;98351.34;1711493;82;20928;-81
2021/05/17 01:59:30;;;;;;;;;;;;;;;10.23;90.49;98348.08;1722459;83;20252;-79
2021/05/17 02:01:57;;;;;;;;;;;;;;;10.18;91.05;98342.65;1722949;82;20223;-80
2021/05/17 02:04:25;;;;;;;;;;;;;;;10.12;90.92;98353.64;1693993;83;20195;-80
2021/05/17 02:06:53;;;;;;;;;;;;;;;10.05;90.52;98344.38;1713299;82;20184;-81
2021/05/17 02:09:20;;;;;;;;;;;;;;;9.99;90.42;98345.03;1721156;83;20190;-81
2021/05/17 02:11:47;;;;;;;;;;;;;;;9.90;91.15;98348.80;1706737;83;20207;-80
2021/05/17 02:14:17;;;;;;;;;;;;;;;9.82;91.12;98345.63;1720404;83;20183;-80
2021/05/17 02:16:44;;;;;;;;;;;;;;;9.70;90.70;98349.48;1698168;82;20201;-81
2021/05/17 02:19:11;;;;;;;;;;;;;;;9.61;90.76;98351.94;1710392;83;20183;-80
2021/05/17 02:21:37;;;;;;;;;;;;;;;9.59;91.65;98350.27;1729231;82;20255;-81
2021/05/17 02:24:08;;;;;;;;;;;;;;;9.58;90.06;98359.81;1714616;83;20177;-80
2021/05/17 02:26:36;;;;;;;;;;;;;;;9.62;94.14;98360.11;1704100;82;20275;-80
2021/05/17 02:29:03;;;;;;;;;;;;;;;9.67;90.31;98357.35;1714977;83;20188;-80
2021/05/17 02:31:30;;;;;;;;;;;;;;;9.73;92.66;98364.50;1712180;82;20198;-79
2021/05/17 02:33:58;;;;;;;;;;;;;;;9.79;94.44;98363.88;1686519;85;20220;-80
2021/05/17 02:36:25;;;;;;;;;;;;;;;9.86;93.35;98361.49;1694426;82;20243;-80
2021/05/17 02:38:52;;;;;;;;;;;;;;;9.91;91.99;98363.50;1697651;82;20174;-80
2021/05/17 02:41:21;;;;;;;;;;;;;;;9.99;90.15;98357.59;1706065;82;20124;-80
2021/05/17 02:43:49;;;;;;;;;;;;;;;10.04;91.60;98353.06;1709575;83;20212;-80
2021/05/17 02:46:17;;;;;;;;;;;;;;;10.08;94.64;98352.05;1716929;83;20176;-81
2021/05/17 02:48:46;;;;;;;;;;;;;;;10.11;94.76;98351.95;1697574;83;20199;-81
2021/05/17 02:51:13;;;;;;;;;;;;;;;10.20;93.46;98353.38;1718241;82;20578;-80
2021/05/17 02:53:52;;;;;;;;;;;;;;;10.28;93.16;98345.31;1703948;83;20194;-82
2021/05/17 02:56:25;;;;;;;;;;;;;;;10.35;94.07;98343.77;1717556;82;20182;-81
2021/05/17 02:59:01;;;;;;;;;;;;;;;10.40;92.94;98344.89;1696239;83;20171;-81
2021/05/17 03:01:32;;;;;;;;;;;;;;;10.44;92.87;98341.28;1719143;82;20216;-81
2021/05/17 03:04:01;;;;;;;;;;;;;;;10.46;92.19;98342.07;1693435;84;20182;-80
2021/05/17 03:06:31;;;;;;;;;;;;;;;10.48;91.03;98331.63;1707325;84;20972;-80
2021/05/17 03:09:05;;;;;;;;;;;;;;;10.46;91.82;98338.17;1689622;82;20222;-81
2021/05/17 03:11:47;;;;;;;;;;;;;;;10.46;91.42;98338.17;1709775;82;20191;-80
2021/05/17 03:14:16;;;;;;;;;;;;;;;10.44;91.07;98327.45;1715683;84;20188;-80
2021/05/17 03:16:49;;;;;;;;;;;;;;;10.43;90.35;98325.31;1716586;82;20171;-80
2021/05/17 03:19:18;;;;;;;;;;;;;;;10.44;90.52;98328.74;1731317;82;20145;-81
2021/05/17 03:21:45;;;;;;;;;;;;;;;10.47;91.03;98328.19;1702546;82;20204;-83
2021/05/17 03:24:11;;;;;;;;;;;;;;;10.48;90.86;98330.33;1695825;84;20191;-84
2021/05/17 03:26:38;;;;;;;;;;;;;;;10.38;90.00;98311.63;1712178;82;21006;-81
2021/05/17 03:29:05;;;;;;;;;;;;;;;10.45;90.68;98320.90;1682240;85;20569;-83
2021/05/17 03:31:31;;;;;;;;;;;;;;;10.46;90.94;98321.28;1698906;82;20196;-80
2021/05/17 03:33:58;;;;;;;;;;;;;;;10.47;90.65;98322.99;1695879;84;20231;-80
2021/05/17 03:36:25;;;;;;;;;;;;;;;10.46;90.84;98330.84;1703308;82;20204;-80
2021/05/17 03:38:51;;;;;;;;;;;;;;;10.45;91.54;98324.80;1698256;82;20191;-80
2021/05/17 03:41:18;;;;;;;;;;;;;;;10.42;91.73;98327.50;1715253;82;20187;-79
2021/05/17 03:43:44;;;;;;;;;;;;;;;10.44;91.27;98330.89;1714969;84;20280;-80
2021/05/17 03:46:10;;;;;;;;;;;;;;;10.48;90.86;98321.23;1712063;82;20244;-81
2021/05/17 03:48:41;;;;;;;;;;;;;;;10.51;89.99;98325.88;1705128;83;20514;-80
2021/05/17 03:51:05;;;;;;;;;;;;;;;10.54;91.31;98332.27;1701285;82;20229;-81
2021/05/17 03:53:31;;;;;;;;;;;;;;;10.58;90.39;98332.97;1693678;84;20139;-81
2021/05/17 03:55:57;;;;;;;;;;;;;;;10.60;90.13;98332.92;1691501;84;20234;-80
2021/05/17 03:58:23;;;;;;;;;;;;;;;10.62;90.85;98332.41;1702122;84;20161;-82
2021/05/17 04:00:49;;;;;;;;;;;;;;;10.65;91.12;98333.61;1705132;83;20156;-82
2021/05/17 04:03:19;;;;;;;;;;;;;;;10.68;91.78;98330.45;1709622;82;20188;-81
2021/05/17 04:13:57;;;;;;;;;;;;;;;10.84;92.80;98337.22;1711967;84;20167;-79
2021/05/17 04:16:24;;;;;;;;;;;;;;;10.92;93.15;98339.06;1707317;82;20178;-79
2021/05/17 04:18:51;;;;;;;;;;;;;;;11.00;92.59;98334.88;1710625;84;20256;-82
2021/05/17 04:21:18;;;;;;;;;;;;;;;11.01;93.00;98331.34;1712904;83;20176;-80
2021/05/17 04:23:44;;;;;;;;;;;;;;;11.12;91.99;98337.42;1704073;82;20176;-82
2021/05/17 04:26:10;;;;;;;;;;;;;;;11.20;90.97;98348.39;1706599;83;20195;-81
2021/05/17 04:28:37;;;;;;;;;;;;;;;11.23;91.74;98346.95;1706924;82;20207;-84
2021/05/17 04:31:03;;;;;;;;;;;;;;;11.35;90.92;98352.13;1712940;84;20343;-82
2021/05/17 04:33:29;;;;;;;;;;;;;;;11.37;90.97;98349.01;1695988;84;20228;-80
2021/05/17 04:35:55;;;;;;;;;;;;;;;11.48;90.03;98344.66;1710204;82;20180;-82
2021/05/17 04:38:22;;;;;;;;;;;;;;;11.48;90.19;98340.75;1705770;82;20200;-79
2021/05/17 04:40:48;;;;;;;;;;;;;;;11.59;90.14;98351.58;1696808;84;20990;-81
2021/05/17 04:43:14;;;;;;;;;;;;;;;11.70;89.77;98344.65;1693577;84;20236;-83
2021/05/17 04:45:40;;;;;;;;;;;;;;;11.81;88.88;98342.89;1698749;82;20232;-80
2021/05/17 04:48:07;;;;;;;;;;;;;;;11.81;88.89;98333.77;1698199;82;20558;-82
2021/05/17 04:50:33;;;;;;;;;;;;;;;11.86;88.49;98330.53;1700280;84;20224;-80
2021/05/17 04:53:00;;;;;;;;;;;;;;;11.92;88.35;98329.00;1700812;84;20215;-80
2021/05/17 04:55:27;;;;;;;;;;;;;;;11.99;88.06;98329.10;1712228;84;20254;-79
2021/05/17 04:57:53;;;;;;;;;;;;;;;12.06;87.08;98321.42;1701509;82;20606;-82
2021/05/17 05:00:20;;;;;;;;;;;;;;;12.03;87.09;98320.24;1711719;83;20182;-80
2021/05/17 05:02:46;;;;;;;;;;;;;;;12.08;87.61;98310.95;1713682;82;20213;-81
2021/05/17 05:05:13;;;;;;;;;;;;;;;12.18;87.28;98300.50;1727258;83;20200;-80
2021/05/17 05:07:39;;;;;;;;;;;;;;;12.27;87.06;98307.89;1719291;83;20511;-80
2021/05/17 05:10:06;;;;;;;;;;;;;;;12.24;86.56;98299.39;1728349;83;20188;-79
2021/05/17 05:12:34;;;;;;;;;;;;;;;12.25;85.51;98294.55;1723526;82;20480;-80
2021/05/17 05:15:00;;;;;;;;;;;;;;;12.08;84.56;98287.03;1724155;82;20180;-79
2021/05/17 05:17:27;;;;;;;;;;;;;;;12.12;84.26;98292.50;1727172;81;20222;-80
2021/05/17 05:19:53;;;;;;;;;;;;;;;12.22;85.01;98282.52;1738830;82;20600;-81
2021/05/17 05:22:19;;;;;;;;;;;;;;;12.36;84.86;98290.17;1735367;81;20203;-81
2021/05/17 05:24:46;;;;;;;;;;;;;;;12.42;84.84;98279.00;1729872;83;20215;-80
2021/05/17 05:32:40;;;;;;;;;;;;;;;12.65;82.94;98276.66;1724522;81;20198;-80
2021/05/17 05:35:05;;;;;;;;;;;;;;;12.69;83.45;98282.11;1734945;82;20639;-79
2021/05/17 05:37:31;;;;;;;;;;;;;;;12.66;82.42;98270.50;1726605;81;20185;-80
2021/05/17 05:39:58;;;;;;;;;;;;;;;12.74;82.46;98268.84;1742491;82;20185;-81
2021/05/17 05:42:26;;;;;;;;;;;;;;;12.75;82.46;98271.83;1736550;81;20218;-81
2021/05/17 05:44:52;;;;;;;;;;;;;;;12.83;82.12;98271.03;1743815;82;20135;-83
2021/05/17 05:47:20;;;;;;;;;;;;;;;12.75;82.08;98271.83;1744325;81;20201;-81
2021/05/17 05:49:48;;;;;;;;;;;;;;;12.83;82.09;98267.12;1740958;81;20177;-83
2021/05/17 05:52:16;;;;;;;;;;;;;;;12.96;81.66;98269.14;1743320;81;20472;-81
2021/05/17 05:54:44;;;;;;;;;;;;;;;12.91;81.10;98263.69;1699923;82;20247;-81
2021/05/17 05:57:11;;;;;;;;;;;;;;;12.98;80.65;98265.99;1714311;82;20182;-81
2021/05/17 05:59:37;;;;;;;;;;;;;;;12.88;81.42;98262.98;1704085;82;20159;-80
2021/05/17 06:02:05;;;;;;;;;;;;;;;13.11;81.76;98270.98;1714415;82;20587;-83
2021/05/17 06:04:34;;;;;;;;;;;;;;;13.08;80.41;98269.38;1714979;81;20172;-88
2021/05/17 06:07:00;;;;;;;;;;;;;;;13.07;80.57;98272.92;1714394;83;20244;-86
2021/05/17 06:09:26;;;;;;;;;;;;;;;13.02;80.26;98261.84;1711548;83;20188;-84
2021/05/17 06:11:55;;;;;;;;;;;;;;;12.96;80.27;98253.48;1714158;83;20187;-83
2021/05/17 06:14:22;;;;;;;;;;;;;;;12.68;81.77;98246.97;1722087;82;20132;-81
2021/05/17 06:16:49;;;;;;;;;;;;;;;12.85;81.24;98239.20;1715768;81;20182;-83
2021/05/17 06:19:16;;;;;;;;;;;;;;;12.83;81.70;98244.08;1701346;81;20133;-87
2021/05/17 06:21:43;;;;;;;;;;;;;;;12.85;81.88;98243.11;1701374;84;20184;-83
2021/05/17 06:24:12;;;;;;;;;;;;;;;13.02;80.77;98234.92;1680891;83;20618;-83
2021/05/17 06:26:39;;;;;;;;;;;;;;;13.05;80.87;98238.23;1695551;84;20530;-82
2021/05/17 06:29:06;;;;;;;;;;;;;;;13.09;81.18;98233.24;1693308;83;20185;-81
2021/05/17 06:31:32;;;;;;;;;;;;;;;13.20;81.79;98237.09;1693505;84;20515;-79
2021/05/17 06:33:59;;;;;;;;;;;;;;;13.33;80.65;98235.13;1693575;84;20217;-81
2021/05/17 06:36:25;;;;;;;;;;;;;;;13.41;81.19;98245.19;1700026;84;20280;-81
2021/05/17 06:38:53;;;;;;;;;;;;;;;13.53;81.37;98246.34;1694445;84;20205;-79
2021/05/17 06:41:20;;;;;;;;;;;;;;;13.62;80.24;98244.55;1697231;84;20215;-83
2021/05/17 06:43:47;;;;;;;;;;;;;;;13.75;79.99;98234.77;1695769;84;20220;-86
2021/05/17 06:46:16;;;;;;;;;;;;;;;13.85;79.02;98233.40;1689404;83;20176;-83
2021/05/17 06:48:42;;;;;;;;;;;;;;;13.86;78.10;98231.15;1693282;84;20177;-82
2021/05/17 06:51:11;;;;;;;;;;;;;;;13.92;78.13;98221.68;1697152;83;20492;-82
2021/05/17 06:53:40;;;;;;;;;;;;;;;14.06;78.83;98211.33;1706834;84;20203;-82
2021/05/17 06:56:12;;;;;;;;;;;;;;;14.28;79.70;98201.03;1694980;84;20125;-83
2021/05/17 06:58:52;;;;;;;;;;;;;;;14.52;79.15;98193.61;1696457;84;20151;-81
2021/05/17 07:01:04;;;;;;;;;;;;;;;14.76;75.95;98188.80;1688949;84;20161;-82
2021/05/17 07:03:30;;;;;;;;;;;;;;;15.02;78.33;98193.02;1697705;84;20153;-85
2021/05/17 07:05:58;;;;;;;;;;;;;;;15.26;75.54;98194.23;1689128;84;20185;-82
2021/05/17 07:13:54;;;;;;;;;;;;;;;15.89;73.19;98182.61;1685675;84;20208;-84
2021/05/17 07:16:20;;;;;;;;;;;;;;;16.07;74.30;98181.95;1691485;84;20252;-88
2021/05/17 07:18:46;;;;;;;;;;;;;;;16.25;72.35;98175.19;1677177;83;20195;-83
2021/05/17 07:23:41;;;;;;;;;;;;;;;16.56;70.91;98177.19;1701391;83;20160;-83
2021/05/17 07:26:16;;;;;;;;;;;;;;;16.65;71.66;98168.70;1701191;83;20168;-81
2021/05/17 07:28:46;;;;;;;;;;;;;;;16.81;71.76;98173.39;1700161;83;20183;-86
2021/05/17 07:31:12;;;;;;;;;;;;;;;16.99;68.18;98174.41;1708437;82;20114;-85
2021/05/17 07:33:39;;;;;;;;;;;;;;;17.09;69.38;98173.72;1715942;83;20192;-81
2021/05/17 07:36:06;;;;;;;;;;;;;;;17.12;69.03;98167.41;1723216;83;20205;-82
2021/05/17 07:38:33;;;;;;;;;;;;;;;17.23;69.05;98175.88;1707510;82;20141;-84
2021/05/17 07:41:01;;;;;;;;;;;;;;;17.29;67.04;98166.30;1723428;83;20173;-86
2021/05/17 07:43:28;;;;;;;;;;;;;;;17.31;68.81;98156.53;1728296;82;20193;-86
2021/05/17 07:45:55;;;;;;;;;;;;;;;17.32;67.17;98145.53;1729828;83;20146;-84
2021/05/17 07:48:22;;;;;;;;;;;;;;;17.37;66.88;98143.42;1721320;83;20188;-86
2021/05/17 07:50:48;;;;;;;;;;;;;;;17.55;68.74;98138.24;1691422;83;20222;-84
2021/05/17 07:53:15;;;;;;;;;;;;;;;17.68;68.44;98135.11;1709272;83;20195;-82
2021/05/17 07:55:42;;;;;;;;;;;;;;;17.76;65.95;98129.80;1690768;84;20196;-84
2021/05/17 07:58:09;;;;;;;;;;;;;;;17.97;65.11;98129.65;1708670;83;20196;-86
2021/05/17 08:00:35;;;;;;;;;;;;;;;18.13;67.11;98131.20;1705936;83;20285;-80
2021/05/17 08:03:02;;;;;;;;;;;;;;;18.21;61.73;98120.97;1707376;83;20299;-81
2021/05/17 08:05:32;;;;;;;;;;;;;;;18.26;60.64;98120.14;1706861;83;20226;-78
2021/05/17 08:07:59;;;;;;;;;;;;;;;18.38;61.89;98119.73;1703765;83;20195;-80
2021/05/17 08:10:26;;;;;;;;;;;;;;;18.55;61.69;98123.30;1709449;83;20279;-83
2021/05/17 08:12:52;;;;;;;;;;;;;;;18.64;63.81;98121.77;1702133;82;20218;-82
2021/05/17 08:15:19;;;;;;;;;;;;;;;18.67;64.51;98118.44;1703412;83;20159;-83
2021/05/17 08:17:46;;;;;;;;;;;;;;;18.76;63.24;98122.66;1710468;83;21034;-82
2021/05/17 08:20:13;;;;;;;;;;;;;;;18.82;61.04;98113.88;1691994;83;20206;-82
2021/05/17 08:22:39;;;;;;;;;;;;;;;18.93;63.34;98106.48;1697411;84;20200;-81
2021/05/17 08:25:06;;;;;;;;;;;;;;;19.04;59.76;98105.69;1689217;84;20213;-82
2021/05/17 08:27:33;;;;;;;;;;;;;;;19.21;60.98;98110.98;1694298;84;20174;-85
2021/05/17 08:29:59;;;;;;;;;;;;;;;19.17;56.51;98116.13;1697026;84;20700;-82
2021/05/17 08:32:26;;;;;;;;;;;;;;;19.26;61.13;98116.27;1690948;82;20193;-81
2021/05/17 08:34:52;;;;;;;;;;;;;;;19.41;62.19;98112.09;1697834;84;20190;-82
2021/05/17 08:37:20;;;;;;;;;;;;;;;19.29;58.00;98109.91;1697330;84;20246;-78
2021/05/17 08:39:46;;;;;;;;;;;;;;;19.42;57.46;98105.88;1695206;84;20256;-82
2021/05/17 08:42:13;;;;;;;;;;;;;;;19.43;59.50;98099.14;1690904;84;20209;-81
2021/05/17 08:44:39;;;;;;;;;;;;;;;19.50;57.43;98103.48;1695876;84;20644;-80
2021/05/17 08:47:07;;;;;;;;;;;;;;;19.53;57.04;98104.55;1696617;84;20147;-85
2021/05/17 08:49:33;;;;;;;;;;;;;;;19.77;60.09;98104.94;1702387;84;20208;-84
2021/05/17 08:51:59;;;;;;;;;;;;;;;20.01;58.25;98109.58;1692778;84;20180;-83
2021/05/17 08:54:26;;;;;;;;;;;;;;;20.22;57.32;98108.84;1693993;83;20172;-82
2021/05/17 08:56:52;;;;;;;;;;;;;;;20.37;56.47;98099.70;1689519;84;20220;-82
2021/05/17 08:59:20;;;;;;;;;;;;;;;20.34;54.97;98103.89;1696898;84;20204;-80
2021/05/17 09:01:47;;;;;;;;;;;;;;;20.17;52.44;98107.05;1693886;84;20205;-80
2021/05/17 09:04:16;;;;;;;;;;;;;;;19.95;53.06;98097.38;1694755;84;20206;-84
2021/05/17 09:06:50;;;;;;;;;;;;;;;19.85;53.17;98099.41;1700387;84;20184;-80
2021/05/17 09:09:24;;;;;;;;;;;;;;;19.97;56.32;98100.23;1695596;84;20156;-82
2021/05/17 09:11:51;;;;;;;;;;;;;;;20.00;52.68;98093.41;1690263;84;20208;-80
2021/05/17 09:14:18;;;;;;;;;;;;;;;20.12;51.31;98098.68;1696556;84;21015;-80
2021/05/17 09:16:51;;;;;;;;;;;;;;;20.23;50.91;98094.67;1699960;84;20201;-81
2021/05/17 09:19:18;;;;;;;;;;;;;;;20.30;50.20;98089.76;1693764;84;20256;-80
2021/05/17 09:22:03;;;;;;;;;;;;;;;20.52;51.07;98092.31;1701422;84;20196;-80
2021/05/17 09:24:41;;;;;;;;;;;;;;;20.76;49.49;98088.66;1693039;84;20156;-80
2021/05/17 09:27:13;;;;;;;;;;;;;;;21.02;51.39;98090.44;1689456;84;20206;-80
2021/05/17 09:29:43;;;;;;;;;;;;;;;20.92;47.62;98095.65;1696052;84;20220;-79
2021/05/17 09:32:17;;;;;;;;;;;;;;;20.79;47.52;98099.81;1694875;84;20232;-81
2021/05/17 09:34:45;;;;;;;;;;;;;;;21.06;52.19;98095.32;1687338;84;20634;-81
2021/05/17 09:37:11;;;;;;;;;;;;;;;21.06;46.83;98084.75;1696372;84;20200;-82
2021/05/17 09:39:40;;;;;;;;;;;;;;;20.87;46.88;98083.33;1703004;84;20196;-80
2021/05/17 09:42:06;;;;;;;;;;;;;;;20.94;51.14;98078.36;1693790;83;20307;-81
2021/05/17 09:44:35;;;;;;;;;;;;;;;20.95;49.61;98068.13;1692888;83;20235;-81
2021/05/17 09:47:06;;;;;;;;;;;;;;;21.17;49.03;98072.43;1685415;84;20215;-81
2021/05/17 09:49:48;;;;;;;;;;;;;;;21.31;50.95;98060.69;1693563;84;20186;-82
2021/05/17 09:52:29;;;;;;;;;;;;;;;21.26;45.97;98069.84;1695845;82;20202;-80
2021/05/17 09:54:58;;;;;;;;;;;;;;;21.31;50.30;98055.40;1684892;84;20238;-80
2021/05/17 09:57:35;;;;;;;;;;;;;;;21.43;48.13;98057.87;1692367;84;20509;-82
2021/05/17 10:00:16;;;;;;;;;;;;;;;21.52;46.14;98049.62;1687777;84;20205;-80
2021/05/17 10:02:45;;;;;;;;;;;;;;;21.71;46.64;98046.22;1689506;84;20200;-81
2021/05/17 10:05:18;;;;;;;;;;;;;;;21.87;43.35;98044.88;1682940;84;20210;-83
2021/05/17 10:07:47;;;;;;;;;;;;;;;22.01;46.45;98040.52;1694743;84;20212;-80
2021/05/17 10:10:14;;;;;;;;;;;;;;;22.23;45.91;98031.48;1685280;84;20170;-84
2021/05/17 10:12:41;;;;;;;;;;;;;;;22.26;45.91;98023.28;1694028;84;20240;-84
2021/05/17 10:15:11;;;;;;;;;;;;;;;22.14;45.90;98019.06;1692824;82;20254;-82
2021/05/17 10:17:37;;;;;;;;;;;;;;;;;;1689130;84;20190;-83
2021/05/17 10:20:13;;;;;;;;;;;;;;;22.18;45.80;98013.84;1705152;83;20180;-83
2021/05/17 10:22:41;;;;;;;;;;;;;;;22.52;45.65;98010.81;1695775;84;20197;-80
2021/05/17 10:25:09;;;;;;;;;;;;;;;22.85;40.31;98008.20;1718184;83;20209;-80
2021/05/17 10:27:42;;;;;;;;;;;;;;;23.12;45.67;98013.23;1696767;84;20367;-80
2021/05/17 10:30:10;;;;;;;;;;;;;;;23.35;46.11;97998.64;1698676;83;20180;-81
2021/05/17 10:32:55;;;;;;;;;;;;;;;23.46;38.11;97998.97;1702487;83;20184;-81
2021/05/17 10:35:27;;;;;;;;;;;;;;;23.56;37.26;97997.09;1695959;83;20188;-82
2021/05/17 10:38:17;;;;;;;;;;;;;;;23.84;39.61;97993.63;1691557;84;20189;-80
2021/05/17 10:40:46;;;;;;;;;;;;;;;23.95;41.69;97986.77;1698168;84;20563;-80
2021/05/17 10:43:29;;;;;;;;;;;;;;;23.94;34.58;97990.42;1679279;83;20200;-87
2021/05/17 10:48:34;;;;;;;;;;;;;;;23.84;33.00;97985.17;1697592;84;20189;-85
2021/05/17 10:51:19;;;;;;;;;;;;;;;23.84;32.22;97987.83;1687090;84;20141;-83
2021/05/17 10:53:58;;;;;;;;;;;;;;;24.03;33.07;97985.52;1696482;84;20246;-82
2021/05/17 10:56:49;;;;;;;;;;;;;;;;;;;;;
2021/05/17 11:02:37;;;;;;;;;;;;;;;23.85;33.44;97962.94;1715665;80;20211;-90
2021/05/17 11:05:26;;;;;;;;;;;;;;;23.89;33.42;97964.30;1731133;81;20139;31
2021/05/17 11:10:58;;;;;;;;;;;;;;;23.75;38.60;97948.38;1690651;82;20115;-87
2021/05/17 11:13:30;;;;;;;;;;;;;;;23.75;35.02;97951.53;1716048;80;20195;-89
2021/05/17 11:16:00;;;;;;;;;;;;;;;23.89;35.44;97940.92;1710965;84;20186;-90
2021/05/17 11:18:35;;;;;;;;;;;;;;;23.85;36.93;97939.05;1699310;84;20229;-88
2021/05/17 11:21:08;;;;;;;;;;;;;;;23.86;34.07;97935.93;1714870;84;20235;-89
2021/05/17 11:23:39;;;;;;;;;;;;;;;23.88;36.22;97936.11;1712635;83;20196;-89
2021/05/17 11:28:41;;;;;;;;;;;;;;;23.80;34.19;97928.90;1691071;81;20108;-88
2021/05/17 11:31:23;;;;;;;;;;;;;;;23.82;34.14;97925.60;1682752;82;20182;-89
2021/05/17 11:33:58;;;;;;;;;;;;;;;23.50;33.64;97922.09;1712981;80;20110;-90
2021/05/17 11:36:30;;;;;;;;;;;;;;;23.87;33.97;97913.70;1702233;79;20216;-90
2021/05/17 11:47:53;;;;;;;;;;;;;;;24.96;33.78;97902.22;1719383;77;20106;-89
2021/05/17 11:50:20;;;;;;;;;;;;;;;24.97;35.44;97907.06;1724602;78;20204;-88
2021/05/17 12:01:35;;;;;;;;;;;;;;;25.13;32.08;97900.48;1722165;78;20216;-87
2021/05/17 12:04:13;;;;;;;;;;;;;;;25.25;30.25;97900.20;1717140;82;20200;-82
2021/05/17 12:06:42;;;;;;;;;;;;;;;25.23;29.75;97900.86;1719648;78;20160;-87
2021/05/17 12:09:17;;;;;;;;;;;;;;;25.33;30.17;97894.43;1716346;82;20211;-88
2021/05/17 12:11:59;;;;;;;;;;;;;;;25.55;31.28;97890.84;1640395;85;20593;-87
2021/05/17 12:14:26;;;;;;;;;;;;;;;25.54;32.01;97892.64;1722031;79;20185;-83
2021/05/17 12:17:09;;;;;;;;;;;;;;;25.37;32.39;97886.97;1682240;80;20253;-86
2021/05/17 12:19:36;;;;;;;;;;;;;;;25.56;32.22;97884.50;1647315;85;20258;-87
2021/05/17 12:22:06;;;;;;;;;;;;;;;25.72;29.46;97890.35;1648346;84;20152;-88
2021/05/17 12:24:33;;;;;;;;;;;;;;;25.87;30.62;97898.03;1652202;85;20184;-84
2021/05/17 12:27:05;;;;;;;;;;;;;;;26.03;31.07;97884.44;1653552;84;20319;-86
2021/05/17 12:29:51;;;;;;;;;;;;;;;26.38;29.86;97885.89;1656269;86;20508;-86
2021/05/17 12:32:21;;;;;;;;;;;;;;;26.84;30.77;97884.00;1708624;84;20183;-84
2021/05/17 12:35:01;;;;;;;;;;;;;;;27.29;28.64;97887.86;1698532;84;20191;-83
2021/05/17 12:37:31;;;;;;;;;;;;;;;27.45;31.15;97883.77;1695516;84;20179;-84
2021/05/17 12:40:16;;;;;;;;;;;;;;;27.46;28.07;97884.62;1708263;84;20180;-85
2021/05/17 12:42:42;;;;;;;;;;;;;;;27.69;28.46;97879.28;1705915;83;20203;-85
2021/05/17 12:45:12;;;;;;;;;;;;;;;28.49;29.67;97877.50;1706512;84;20163;-86
2021/05/17 12:47:41;;;;;;;;;;;;;;;28.46;27.53;97877.84;1708693;84;20175;-87
2021/05/17 12:50:21;;;;;;;;;;;;;;;28.47;27.74;97869.31;1709413;80;20235;-86
2021/05/17 12:52:50;;;;;;;;;;;;;;;28.20;29.19;97875.59;1710822;83;20185;-89
2021/05/17 12:55:20;;;;;;;;;;;;;;;27.53;29.05;97873.55;1675871;84;20173;-89
2021/05/17 12:57:58;;;;;;;;;;;;;;;27.11;28.80;97878.73;1709317;84;20183;-87
2021/05/17 13:00:43;;;;;;;;;;;;;;;27.08;29.53;97877.26;1685905;81;20188;-87
2021/05/17 13:03:25;;;;;;;;;;;;;;;26.64;30.97;97877.74;1709936;84;20167;-90
2021/05/17 13:06:11;;;;;;;;;;;;;;;26.33;30.19;97881.59;1698621;83;20304;-86
2021/05/17 13:08:41;;;;;;;;;;;;;;;25.96;29.29;97881.59;1716973;83;20156;-86
2021/05/17 13:11:11;;;;;;;;;;;;;;;25.67;30.24;97883.38;1656965;84;20190;-85
2021/05/17 13:14:09;;;;;;;;;;;;;;;24.64;30.04;97846.25;1665773;84;20172;-89
2021/05/17 13:16:55;;;;;;;;;;;;;;;24.47;31.33;97885.98;1712254;84;20183;-87
2021/05/17 13:23:03;;;;;;;;;;;;;;;23.92;33.25;97891.53;1699697;83;20213;-88
2021/05/17 13:31:03;;;;;;;;;;;;;;;23.22;35.62;97878.35;1653314;85;20197;-86
2021/05/17 13:33:37;;;;;;;;;;;;;;;23.11;35.98;97885.17;1701575;84;20263;-84
2021/05/17 13:36:10;;;;;;;;;;;;;;;22.68;37.44;97876.00;1697835;84;20209;-85
2021/05/17 13:38:38;;;;;;;;;;;;;;;22.50;38.58;97873.27;1699881;84;20123;-85
2021/05/17 13:41:14;;;;;;;;;;;;;;;22.32;39.24;97876.28;1699922;84;20268;-84
2021/05/17 13:43:45;;;;;;;;;;;;;;;22.27;39.57;97875.39;1693419;83;20223;-81
2021/05/17 13:46:12;;;;;;;;;;;;;;;22.19;40.57;97873.92;1677461;84;20358;-81
2021/05/17 13:48:48;;;;;;;;;;;;;;;21.93;43.64;97871.84;1705918;82;20113;-86
2021/05/17 13:51:08;;;;;;;;;;;;;;;21.70;43.86;97872.60;1704577;83;20742;-86
2021/05/17 13:53:34;;;;;;;;;;;;;;;21.49;44.88;97876.70;1678374;84;20201;-85
2021/05/17 13:56:01;;;;;;;;;;;;;;;21.33;45.97;97869.73;1700767;83;20199;-82
2021/05/17 13:58:27;;;;;;;;;;;;;;;21.32;46.42;97866.27;1694243;83;20226;-83